Time;durP1;ratioP1;P1;durP2;ratioP2;P2;SDS_P1;SDS_P2;PMS_P1;PMS_P2;Temp;Humidity;BMP_temperature;BMP_pressure;BME280_temperature;BME280_humidity;BME280_pressure;Samples;Min_cycle;Max_cycle;Signal;HPM_P1;HPM_P2
2023/08/22 00:01:44;;;;;;;15.82;14.45;;;17.00;99.90;;;;;;4969015;28;20059;-77
2023/08/22 00:04:11;;;;;;;15.80;14.60;;;16.90;99.90;;;;;;4955625;28;20113;-77
2023/08/22 00:06:38;;;;;;;17.83;15.95;;;16.80;99.90;;;;;;4971753;28;20047;-77
2023/08/22 00:09:04;;;;;;;16.80;15.32;;;16.80;99.90;;;;;;4966081;28;20065;-77
2023/08/22 00:11:31;;;;;;;16.10;14.52;;;16.80;99.90;;;;;;4964693;28;20058;-77
2023/08/22 00:13:58;;;;;;;16.23;14.25;;;16.80;99.90;;;;;;4968343;28;20106;-77
2023/08/22 00:16:25;;;;;;;16.10;14.80;;;16.70;99.90;;;;;;4969782;28;20050;-77
2023/08/22 00:18:52;;;;;;;16.20;14.95;;;16.60;99.90;;;;;;4967615;28;20054;-77
2023/08/22 00:21:18;;;;;;;16.00;14.50;;;16.60;99.90;;;;;;4971930;28;20050;-77
2023/08/22 00:23:45;;;;;;;15.95;14.63;;;16.60;99.90;;;;;;4978186;28;20117;-77
2023/08/22 00:26:12;;;;;;;15.88;14.52;;;16.50;99.90;;;;;;4965353;28;20074;-77
2023/08/22 00:28:39;;;;;;;16.05;14.68;;;16.60;99.90;;;;;;4975158;28;20046;-77
2023/08/22 00:31:05;;;;;;;15.93;14.60;;;16.60;99.90;;;;;;4970473;28;20070;-77
2023/08/22 00:33:32;;;;;;;16.15;15.02;;;16.50;99.90;;;;;;4973934;28;20841;-77
2023/08/22 00:35:59;;;;;;;16.67;15.32;;;16.50;99.90;;;;;;4967877;28;20047;-77
2023/08/22 00:38:25;;;;;;;15.27;14.15;;;16.50;99.90;;;;;;4970577;28;20042;-77
2023/08/22 00:40:52;;;;;;;15.40;14.15;;;16.70;99.90;;;;;;4968532;28;20516;-76
2023/08/22 00:43:19;;;;;;;14.85;13.77;;;16.60;99.90;;;;;;4988615;28;20053;-77
2023/08/22 00:45:46;;;;;;;15.23;14.18;;;16.60;99.90;;;;;;4958099;28;20050;-77
2023/08/22 00:48:13;;;;;;;15.80;14.27;;;16.70;99.90;;;;;;4975327;28;20049;-77
2023/08/22 00:50:41;;;;;;;17.48;15.75;;;16.70;99.90;;;;;;4972554;28;20536;-77
2023/08/22 00:53:08;;;;;;;16.73;15.32;;;16.60;99.90;;;;;;4970521;28;20050;-77
2023/08/22 00:55:34;;;;;;;15.18;14.02;;;16.70;99.90;;;;;;4975248;28;20093;-77
2023/08/22 00:58:01;;;;;;;16.20;14.48;;;16.80;99.90;;;;;;4971983;28;20080;-77
2023/08/22 01:00:28;;;;;;;16.02;14.68;;;16.70;99.90;;;;;;4977536;28;20050;-77
2023/08/22 01:02:55;;;;;;;15.48;14.25;;;16.60;99.90;;;;;;4969466;28;20530;-76
2023/08/22 01:05:27;;;;;;;15.60;14.32;;;16.50;99.90;;;;;;4974228;28;20104;-77
2023/08/22 01:08:04;;;;;;;16.95;15.30;;;16.40;99.90;;;;;;4966344;28;20492;-77
2023/08/22 01:10:38;;;;;;;15.23;14.07;;;16.50;99.90;;;;;;4970665;28;20532;-77
2023/08/22 01:13:12;;;;;;;16.52;15.07;;;16.50;99.90;;;;;;4986542;28;20051;-76
2023/08/22 01:15:40;;;;;;;16.47;14.87;;;16.30;99.90;;;;;;4977684;28;20082;-77
2023/08/22 01:18:08;;;;;;;17.17;15.43;;;16.20;99.90;;;;;;4969346;28;20669;-77
2023/08/22 01:20:35;;;;;;;15.40;14.20;;;16.20;99.90;;;;;;4975495;28;20070;-77
2023/08/22 01:23:03;;;;;;;15.80;14.27;;;16.20;99.90;;;;;;4972236;28;20062;-77
2023/08/22 01:25:30;;;;;;;15.95;14.68;;;16.30;99.90;;;;;;4972569;28;20054;-78
2023/08/22 01:28:18;;;;;;;16.52;14.80;;;16.20;99.90;;;;;;4974389;28;20042;-77
2023/08/22 01:31:12;;;;;;;15.07;13.73;;;16.20;99.90;;;;;;4982204;28;20042;-77
2023/08/22 01:33:46;;;;;;;14.98;13.77;;;16.20;99.90;;;;;;4976081;28;20524;-77
2023/08/22 01:36:16;;;;;;;15.52;14.20;;;16.10;99.90;;;;;;4974181;28;20072;-77
2023/08/22 01:38:45;;;;;;;15.00;13.63;;;16.20;99.90;;;;;;4972215;28;20054;-77
2023/08/22 01:41:12;;;;;;;13.60;12.65;;;16.10;99.90;;;;;;4961847;28;20039;-77
2023/08/22 01:43:42;;;;;;;14.32;12.93;;;15.80;99.90;;;;;;4973801;28;20509;-77
2023/08/22 01:46:09;;;;;;;13.63;12.75;;;15.80;99.90;;;;;;4970534;28;20053;-77
2023/08/22 01:48:36;;;;;;;15.07;13.75;;;15.80;99.90;;;;;;4974320;28;20508;-77
2023/08/22 01:51:03;;;;;;;14.07;13.25;;;15.90;99.90;;;;;;4969890;28;20469;-77
2023/08/22 01:53:29;;;;;;;14.60;12.73;;;16.00;99.90;;;;;;4968821;28;20054;-77
2023/08/22 01:56:00;;;;;;;14.18;13.18;;;16.00;99.90;;;;;;4987890;28;20073;-77
2023/08/22 01:58:27;;;;;;;14.73;13.65;;;15.90;99.90;;;;;;4991827;28;20050;-77
2023/08/22 02:00:55;;;;;;;15.00;13.70;;;15.90;99.90;;;;;;4976913;28;20046;-77
2023/08/22 02:03:23;;;;;;;15.70;14.25;;;15.90;99.90;;;;;;4970058;28;21156;-77
2023/08/22 02:05:50;;;;;;;14.85;13.52;;;15.80;99.90;;;;;;4975497;28;20054;-78
2023/08/22 02:08:17;;;;;;;15.65;13.93;;;15.70;99.90;;;;;;4964608;28;20161;-77
2023/08/22 02:10:44;;;;;;;15.85;14.35;;;15.70;99.90;;;;;;4962410;28;20053;-77
2023/08/22 02:13:11;;;;;;;15.45;14.25;;;15.70;99.90;;;;;;4968637;28;20407;-78
2023/08/22 02:15:37;;;;;;;15.48;14.15;;;15.70;99.90;;;;;;4975871;28;20042;-76
2023/08/22 02:18:05;;;;;;;14.80;13.60;;;15.60;99.90;;;;;;4970634;28;20069;-77
2023/08/22 02:20:32;;;;;;;15.15;13.95;;;15.60;99.90;;;;;;4954727;28;20054;-76
2023/08/22 02:23:01;;;;;;;15.82;14.25;;;15.70;99.90;;;;;;4969807;28;20062;-77
2023/08/22 02:25:29;;;;;;;15.48;14.20;;;15.70;99.90;;;;;;4972057;28;20057;-77
2023/08/22 02:27:56;;;;;;;16.35;14.98;;;15.70;99.90;;;;;;4976825;28;20549;-77
2023/08/22 02:30:23;;;;;;;15.93;14.43;;;15.80;99.90;;;;;;4965296;28;20127;-77
2023/08/22 02:32:50;;;;;;;15.43;13.85;;;15.70;99.90;;;;;;4974373;28;20054;-77
2023/08/22 02:35:16;;;;;;;16.15;14.82;;;15.60;99.90;;;;;;4967605;28;20108;-77
2023/08/22 02:37:43;;;;;;;14.90;13.52;;;15.60;99.90;;;;;;4974103;28;20137;-77
2023/08/22 02:40:10;;;;;;;16.70;14.30;;;15.60;99.90;;;;;;4964335;28;20055;-77
2023/08/22 02:42:37;;;;;;;15.32;13.82;;;15.60;99.90;;;;;;4964404;28;20576;-77
2023/08/22 02:45:05;;;;;;;14.30;13.25;;;15.50;99.90;;;;;;4970789;28;20046;-77
2023/08/22 02:47:31;;;;;;;14.40;12.88;;;15.40;99.90;;;;;;4974063;28;20043;-77
2023/08/22 02:49:58;;;;;;;14.10;12.90;;;15.40;99.90;;;;;;4971232;28;20039;-77
2023/08/22 02:52:25;;;;;;;13.27;12.38;;;15.40;99.90;;;;;;4971386;28;21051;-77
2023/08/22 02:54:52;;;;;;;14.48;13.13;;;15.40;99.90;;;;;;4963700;28;20046;-77
2023/08/22 02:57:21;;;;;;;14.20;12.95;;;15.50;99.90;;;;;;4972414;28;20054;-77
2023/08/22 02:59:47;;;;;;;14.40;13.05;;;15.40;99.90;;;;;;4973824;28;20803;-78
2023/08/22 03:02:14;;;;;;;13.75;12.63;;;15.40;99.90;;;;;;4962736;28;20054;-79
2023/08/22 03:04:41;;;;;;;14.48;13.20;;;15.50;99.90;;;;;;4975229;28;20061;-77
2023/08/22 03:07:09;;;;;;;14.02;12.82;;;15.30;99.90;;;;;;4966757;28;20050;-79
2023/08/22 03:09:39;;;;;;;15.57;13.00;;;15.40;99.90;;;;;;4986983;28;20153;-79
2023/08/22 03:12:08;;;;;;;14.02;12.45;;;15.40;99.90;;;;;;4962522;28;20515;-78
2023/08/22 03:14:35;;;;;;;14.48;13.15;;;15.20;99.90;;;;;;4988577;28;20542;-76
2023/08/22 03:17:02;;;;;;;14.95;13.60;;;15.00;99.90;;;;;;4984867;28;20058;-78
2023/08/22 03:19:29;;;;;;;16.23;13.75;;;15.10;99.90;;;;;;4967811;28;20057;-77
2023/08/22 03:22:01;;;;;;;17.70;13.52;;;15.20;99.90;;;;;;4969339;28;20047;-78
2023/08/22 03:24:30;;;;;;;13.48;12.30;;;15.20;99.90;;;;;;4972244;28;20076;-79
2023/08/22 03:26:57;;;;;;;14.25;13.02;;;15.20;99.90;;;;;;4953005;28;20104;-79
2023/08/22 03:29:24;;;;;;;14.65;12.23;;;15.20;99.90;;;;;;4968675;28;20477;-79
2023/08/22 03:31:51;;;;;;;14.27;12.77;;;15.10;99.90;;;;;;4971187;28;20051;-76
2023/08/22 03:34:18;;;;;;;16.25;12.00;;;14.90;99.90;;;;;;4967590;28;20595;-77
2023/08/22 03:36:45;;;;;;;12.98;11.88;;;14.70;99.90;;;;;;4966112;28;20068;-77
2023/08/22 03:39:13;;;;;;;13.35;12.13;;;14.90;99.90;;;;;;4968835;28;20047;-78
2023/08/22 03:41:40;;;;;;;13.82;12.73;;;14.80;99.90;;;;;;4966683;28;20058;-78
2023/08/22 03:44:06;;;;;;;14.93;13.40;;;14.80;99.90;;;;;;4971858;28;20130;-78
2023/08/22 03:46:34;;;;;;;15.77;14.25;;;14.80;99.90;;;;;;4971482;28;20174;-77
2023/08/22 03:49:09;;;;;;;15.98;14.43;;;14.80;99.90;;;;;;4966844;28;20047;-77
2023/08/22 03:51:38;;;;;;;17.13;15.10;;;14.80;99.90;;;;;;4971553;28;20108;-79
2023/08/22 03:54:05;;;;;;;16.85;15.43;;;14.90;99.90;;;;;;4970987;28;20097;-79
2023/08/22 03:56:31;;;;;;;16.15;14.75;;;15.00;99.90;;;;;;4958057;28;20105;-76
2023/08/22 03:58:59;;;;;;;16.45;14.63;;;15.10;99.90;;;;;;4971564;28;20105;-77
2023/08/22 04:01:26;;;;;;;17.38;16.08;;;14.90;99.90;;;;;;4961798;28;20047;-78
2023/08/22 04:03:53;;;;;;;16.65;15.25;;;14.90;99.90;;;;;;4969652;28;20059;-77
2023/08/22 04:06:20;;;;;;;16.77;15.23;;;15.00;99.90;;;;;;4965369;28;21138;-77
2023/08/22 04:08:46;;;;;;;15.60;14.20;;;14.90;99.90;;;;;;4973362;28;20049;-77
2023/08/22 04:11:13;;;;;;;16.65;15.18;;;15.00;99.90;;;;;;4961880;28;20089;-77
2023/08/22 04:13:40;;;;;;;17.20;15.45;;;15.00;99.90;;;;;;4970253;28;20101;-77
2023/08/22 04:16:06;;;;;;;18.23;16.50;;;15.00;99.90;;;;;;4974592;28;20603;-77
2023/08/22 04:18:33;;;;;;;15.90;14.73;;;14.90;99.90;;;;;;4971546;28;20751;-77
2023/08/22 04:21:02;;;;;;;17.67;15.90;;;14.90;99.90;;;;;;4969894;28;20049;-77
2023/08/22 04:23:28;;;;;;;16.50;15.27;;;15.00;99.90;;;;;;4968730;28;20046;-76
2023/08/22 04:25:56;;;;;;;17.40;15.70;;;14.90;99.90;;;;;;4972919;28;20062;-77
2023/08/22 04:28:24;;;;;;;17.83;16.17;;;14.80;99.90;;;;;;4966445;28;20138;-77
2023/08/22 04:30:56;;;;;;;16.25;15.02;;;14.80;99.90;;;;;;4970256;28;20104;-77
2023/08/22 04:33:23;;;;;;;16.77;15.57;;;14.80;99.90;;;;;;4971942;28;20054;-77
2023/08/22 04:35:51;;;;;;;16.05;14.85;;;14.70;99.90;;;;;;4986394;28;20093;-79
2023/08/22 04:38:20;;;;;;;17.25;15.82;;;14.80;99.90;;;;;;4986978;28;20133;-77
2023/08/22 04:40:47;;;;;;;18.23;16.70;;;14.90;99.90;;;;;;4971720;28;20065;-77
2023/08/22 04:43:24;;;;;;;18.02;16.58;;;14.80;99.90;;;;;;4966997;28;20046;-77
2023/08/22 04:45:54;;;;;;;17.55;16.15;;;14.80;99.90;;;;;;4975477;28;20050;-77
2023/08/22 04:48:23;;;;;;;17.55;16.13;;;15.00;99.90;;;;;;4970400;28;20101;-79
2023/08/22 04:50:50;;;;;;;18.27;15.38;;;15.10;99.90;;;;;;4966960;28;20046;-77
2023/08/22 04:53:18;;;;;;;17.88;16.13;;;15.10;99.90;;;;;;4965187;28;20038;-77
2023/08/22 04:55:45;;;;;;;22.40;15.73;;;15.10;99.90;;;;;;4974684;28;20038;-77
2023/08/22 04:58:12;;;;;;;18.63;16.40;;;15.00;99.90;;;;;;4972466;28;20050;-77
2023/08/22 05:00:39;;;;;;;17.42;15.85;;;15.00;99.90;;;;;;4972406;28;20054;-77
2023/08/22 05:03:07;;;;;;;17.35;15.50;;;15.00;99.90;;;;;;4967772;28;20046;-77
2023/08/22 05:05:35;;;;;;;17.63;16.02;;;14.90;99.90;;;;;;4966331;28;20843;-77
2023/08/22 05:08:02;;;;;;;17.20;15.90;;;15.10;99.90;;;;;;4957025;28;20057;-78
2023/08/22 05:10:28;;;;;;;17.88;16.42;;;15.20;99.90;;;;;;4970149;28;20046;-76
2023/08/22 05:12:55;;;;;;;17.50;15.88;;;15.20;99.90;;;;;;4982202;28;20053;-76
2023/08/22 05:15:23;;;;;;;16.90;15.50;;;15.30;99.90;;;;;;4970585;28;20551;-79
2023/08/22 05:17:51;;;;;;;17.27;16.08;;;15.30;99.90;;;;;;4971646;28;20046;-77
2023/08/22 05:20:18;;;;;;;18.35;16.50;;;15.40;99.90;;;;;;4964939;28;20047;-77
2023/08/22 05:22:45;;;;;;;17.60;15.93;;;15.60;99.90;;;;;;4975540;28;20046;-77
2023/08/22 05:25:12;;;;;;;16.20;14.90;;;15.60;99.90;;;;;;4953279;28;20108;-78
2023/08/22 05:27:39;;;;;;;16.48;15.02;;;15.70;99.90;;;;;;4987036;28;20058;-77
2023/08/22 05:30:07;;;;;;;15.60;14.23;;;15.80;99.90;;;;;;4973396;28;20035;-78
2023/08/22 05:32:34;;;;;;;16.55;14.90;;;15.80;99.90;;;;;;4955864;28;20062;-77
2023/08/22 05:35:02;;;;;;;15.43;13.90;;;15.80;99.90;;;;;;4974241;28;20073;-78
2023/08/22 05:37:29;;;;;;;14.50;13.20;;;15.90;99.90;;;;;;4969515;28;20046;-79
2023/08/22 05:39:57;;;;;;;14.75;13.30;;;15.90;99.90;;;;;;4958854;28;20497;-78
2023/08/22 05:42:25;;;;;;;15.48;13.85;;;16.00;99.90;;;;;;4964775;28;20564;-78
2023/08/22 05:44:52;;;;;;;14.63;13.13;;;16.00;99.90;;;;;;4973908;28;20818;-79
2023/08/22 05:47:19;;;;;;;13.95;12.68;;;16.10;99.90;;;;;;4972033;28;20038;-79
2023/08/22 05:49:46;;;;;;;16.08;14.43;;;16.10;99.90;;;;;;4973715;28;20042;-79
2023/08/22 05:52:13;;;;;;;15.43;14.13;;;16.10;99.90;;;;;;4956248;28;20436;-78
2023/08/22 05:54:41;;;;;;;16.92;15.30;;;16.10;99.90;;;;;;4973229;28;20052;-78
2023/08/22 05:57:08;;;;;;;16.35;15.13;;;16.20;99.90;;;;;;4955204;28;20049;-78
2023/08/22 05:59:35;;;;;;;17.23;15.70;;;16.30;99.90;;;;;;4968624;28;20600;-77
2023/08/22 06:02:02;;;;;;;18.50;16.95;;;16.40;99.90;;;;;;4970721;28;20046;-78
2023/08/22 06:04:29;;;;;;;17.98;16.58;;;16.70;99.90;;;;;;4971058;28;20050;-78
2023/08/22 06:06:56;;;;;;;19.55;17.95;;;16.90;99.90;;;;;;4970755;28;20089;-78
2023/08/22 06:09:23;;;;;;;19.45;17.88;;;16.90;99.90;;;;;;4972265;28;20494;-78
2023/08/22 06:11:49;;;;;;;19.83;17.85;;;16.90;99.90;;;;;;4985421;28;20137;-77
2023/08/22 06:14:16;;;;;;;19.25;17.85;;;17.00;99.90;;;;;;4957890;28;20399;-78
2023/08/22 06:16:43;;;;;;;20.42;18.33;;;17.10;99.90;;;;;;4985916;28;20039;-78
2023/08/22 06:19:10;;;;;;;20.92;19.17;;;17.30;99.90;;;;;;4975176;28;20041;-78
2023/08/22 06:21:38;;;;;;;19.50;18.20;;;17.50;99.90;;;;;;4953897;28;20084;-78
2023/08/22 06:24:05;;;;;;;20.00;18.55;;;17.80;99.90;;;;;;4973006;28;20050;-78
2023/08/22 06:26:32;;;;;;;22.15;20.27;;;17.90;99.90;;;;;;4970713;28;20053;-78
2023/08/22 06:28:59;;;;;;;20.83;19.02;;;18.10;99.90;;;;;;4955112;28;20056;-78
2023/08/22 06:31:27;;;;;;;20.77;19.35;;;18.30;99.90;;;;;;4967495;28;20034;-77
2023/08/22 06:33:54;;;;;;;21.88;20.02;;;18.50;99.90;;;;;;4973939;28;20058;-77
2023/08/22 06:36:21;;;;;;;22.95;21.35;;;18.50;99.90;;;;;;4969692;28;20046;-77
2023/08/22 06:38:48;;;;;;;24.52;22.42;;;18.70;99.90;;;;;;4971005;28;20054;-78
2023/08/22 06:41:16;;;;;;;24.35;22.65;;;18.80;99.90;;;;;;4968869;28;20825;-78
2023/08/22 06:43:43;;;;;;;24.30;22.50;;;19.00;99.90;;;;;;4984402;28;20109;-78
2023/08/22 06:46:12;;;;;;;26.38;24.10;;;19.10;99.90;;;;;;4962112;28;20051;-78
2023/08/22 06:48:39;;;;;;;26.77;24.67;;;19.20;99.90;;;;;;4971118;28;20042;-77
2023/08/22 06:51:18;;;;;;;26.45;24.23;;;19.30;99.90;;;;;;4971947;28;20088;-76
2023/08/22 06:53:44;;;;;;;28.75;26.08;;;19.30;99.90;;;;;;4971966;28;20042;-78
2023/08/22 06:56:11;;;;;;;29.42;27.00;;;19.40;99.90;;;;;;4984334;28;20054;-79
2023/08/22 06:58:38;;;;;;;28.20;25.88;;;19.50;99.90;;;;;;4981256;28;20208;-79
2023/08/22 07:01:07;;;;;;;27.50;25.42;;;19.50;99.90;;;;;;4978195;28;20046;-78
2023/08/22 07:03:34;;;;;;;28.08;25.33;;;19.70;99.90;;;;;;4960343;28;20054;-78
2023/08/22 07:06:02;;;;;;;28.67;26.45;;;19.80;99.90;;;;;;4981377;28;20042;-78
2023/08/22 07:08:28;;;;;;;26.15;24.23;;;19.90;99.90;;;;;;4974274;28;20121;-78
2023/08/22 07:11:03;;;;;;;27.10;25.20;;;20.10;99.90;;;;;;4978601;28;20034;-78
2023/08/22 07:13:31;;;;;;;29.50;25.48;;;20.20;99.90;;;;;;4979205;28;20520;-78
2023/08/22 07:15:58;;;;;;;28.27;25.95;;;20.30;99.90;;;;;;4979087;28;20042;-78
2023/08/22 07:18:27;;;;;;;28.30;25.95;;;20.40;99.90;;;;;;4974874;28;20053;-78
2023/08/22 07:20:54;;;;;;;27.45;25.15;;;20.50;99.90;;;;;;4981475;28;20047;-78
2023/08/22 07:23:22;;;;;;;27.52;25.13;;;20.80;99.90;;;;;;4980397;28;20113;-78
2023/08/22 07:25:52;;;;;;;28.50;25.95;;;20.90;99.90;;;;;;4979062;28;20125;-78
2023/08/22 07:28:18;;;;;;;28.30;26.20;;;21.10;99.90;;;;;;4983308;28;20043;-78
2023/08/22 07:30:46;;;;;;;27.98;25.85;;;21.50;99.90;;;;;;4980637;28;20042;-79
2023/08/22 07:33:16;;;;;;;28.75;26.05;;;22.10;99.90;;;;;;4982317;28;20043;-79
2023/08/22 07:35:44;;;;;;;29.52;26.63;;;22.30;99.90;;;;;;4979583;28;20904;-78
2023/08/22 07:38:10;;;;;;;30.05;27.05;;;22.60;99.90;;;;;;4977872;28;20050;-77
2023/08/22 07:40:39;;;;;;;28.63;26.25;;;22.60;99.90;;;;;;4975988;28;20050;-79
2023/08/22 07:43:07;;;;;;;27.40;25.30;;;22.60;99.90;;;;;;4995749;28;20054;-78
2023/08/22 07:45:33;;;;;;;27.63;25.17;;;22.70;99.90;;;;;;4979017;28;20058;-79
2023/08/22 07:48:01;;;;;;;29.52;27.27;;;23.00;99.90;;;;;;4970500;28;20064;-79
2023/08/22 07:50:28;;;;;;;27.73;25.80;;;23.20;99.90;;;;;;4986302;28;20039;-79
2023/08/22 07:52:55;;;;;;;27.75;25.83;;;23.40;99.90;;;;;;4990461;28;20073;-79
2023/08/22 07:55:23;;;;;;;29.20;26.77;;;23.90;99.90;;;;;;4985783;28;20066;-79
2023/08/22 07:57:51;;;;;;;31.20;28.83;;;24.00;99.90;;;;;;4987138;28;20137;-78
2023/08/22 08:00:18;;;;;;;30.50;28.15;;;24.20;99.90;;;;;;4979333;28;20070;-79
2023/08/22 08:02:45;;;;;;;30.90;28.52;;;24.50;99.90;;;;;;4984644;28;20104;-79
2023/08/22 08:05:12;;;;;;;31.70;29.13;;;24.70;99.90;;;;;;4986337;28;20119;-78
2023/08/22 08:07:39;;;;;;;30.75;28.33;;;24.70;99.90;;;;;;4978862;28;20030;-78
2023/08/22 08:10:08;;;;;;;31.38;28.63;;;24.80;99.90;;;;;;4997268;28;20038;-78
2023/08/22 08:12:34;;;;;;;30.73;28.20;;;24.80;99.90;;;;;;4983634;28;20046;-79
2023/08/22 08:15:02;;;;;;;30.73;28.45;;;24.90;99.90;;;;;;4987601;28;20046;-78
2023/08/22 08:17:29;;;;;;;31.60;29.30;;;25.00;99.90;;;;;;4993616;28;20038;-79
2023/08/22 08:19:56;;;;;;;32.58;30.27;;;25.00;99.90;;;;;;4967948;28;20172;-78
2023/08/22 08:22:22;;;;;;;32.13;29.52;;;25.00;99.90;;;;;;4966266;28;20134;-79
2023/08/22 08:24:49;;;;;;;32.50;30.00;;;25.00;99.90;;;;;;4980225;28;20054;-77
2023/08/22 08:27:16;;;;;;;33.67;30.98;;;25.00;99.90;;;;;;4979842;28;20046;-78
2023/08/22 08:29:43;;;;;;;32.65;30.23;;;25.00;99.90;;;;;;4963404;28;20108;-78
2023/08/22 08:32:10;;;;;;;32.67;30.40;;;25.10;99.90;;;;;;4981958;28;20046;-78
2023/08/22 08:34:37;;;;;;;33.53;31.17;;;25.30;99.90;;;;;;4979259;28;20046;-78
2023/08/22 08:37:04;;;;;;;30.98;28.90;;;25.30;99.90;;;;;;4980087;28;20581;-77
2023/08/22 08:39:30;;;;;;;29.52;27.55;;;25.30;99.90;;;;;;4972944;28;20839;-78
2023/08/22 08:42:07;;;;;;;33.30;30.88;;;25.30;99.90;;;;;;4976772;28;20057;-78
2023/08/22 08:44:34;;;;;;;32.97;30.50;;;25.40;99.90;;;;;;4978923;28;20183;-78
2023/08/22 08:47:03;;;;;;;33.83;31.38;;;25.60;99.90;;;;;;4976457;28;20038;-78
2023/08/22 08:49:32;;;;;;;30.98;28.88;;;25.30;99.90;;;;;;4979316;28;20505;-77
2023/08/22 08:52:05;;;;;;;30.63;27.67;;;25.30;99.90;;;;;;4983941;28;20061;-78
2023/08/22 08:54:33;;;;;;;31.90;29.58;;;25.10;99.90;;;;;;4976640;28;20050;-78
2023/08/22 08:57:03;;;;;;;31.30;29.23;;;25.30;99.90;;;;;;4977947;28;20038;-77
2023/08/22 08:59:31;;;;;;;33.25;30.90;;;25.30;99.90;;;;;;4978165;28;20136;-77
2023/08/22 09:02:01;;;;;;;34.53;32.28;;;25.40;99.90;;;;;;4977333;28;20109;-78
2023/08/22 09:04:28;;;;;;;35.05;32.50;;;25.60;99.90;;;;;;4978587;28;20109;-78
2023/08/22 09:06:55;;;;;;;33.80;31.60;;;25.80;99.90;;;;;;4976803;28;20038;-78
2023/08/22 09:09:24;;;;;;;34.17;31.38;;;26.00;99.90;;;;;;4977934;28;20057;-78
2023/08/22 09:11:51;;;;;;;35.30;32.83;;;25.90;99.90;;;;;;4978591;28;20677;-78
2023/08/22 09:14:22;;;;;;;37.30;34.20;;;26.20;99.90;;;;;;4983253;28;20050;-78
2023/08/22 09:16:50;;;;;;;37.05;34.65;;;26.30;99.90;;;;;;4983330;28;20104;-78
2023/08/22 09:19:17;;;;;;;34.13;32.00;;;26.60;99.90;;;;;;4981367;28;20072;-77
2023/08/22 09:22:00;;;;;;;33.75;31.15;;;26.40;99.90;;;;;;4977594;28;20046;-77
2023/08/22 09:24:27;;;;;;;34.55;32.22;;;26.50;99.90;;;;;;4981571;28;20070;-78
2023/08/22 09:26:54;;;;;;;36.35;33.72;;;26.50;99.90;;;;;;4978923;28;20042;-77
2023/08/22 09:29:28;;;;;;;33.72;31.25;;;25.90;99.90;;;;;;4984230;28;20046;-78
2023/08/22 09:32:03;;;;;;;35.20;32.47;;;25.90;99.90;;;;;;4966669;28;20096;-77
2023/08/22 09:34:30;;;;;;;34.15;31.83;;;26.20;99.90;;;;;;4980056;28;20046;-77
2023/08/22 09:36:57;;;;;;;36.42;33.85;;;26.50;99.90;;;;;;4979444;28;20065;-78
2023/08/22 09:39:25;;;;;;;35.90;33.58;;;26.80;99.90;;;;;;4980948;28;20105;-78
2023/08/22 09:41:54;;;;;;;37.35;34.70;;;27.00;99.90;;;;;;4979226;28;20049;-78
2023/08/22 09:44:23;;;;;;;35.63;32.95;;;27.10;99.90;;;;;;4983458;28;20085;-78
2023/08/22 09:46:52;;;;;;;35.45;32.97;;;27.20;99.90;;;;;;4972374;28;20824;-77
2023/08/22 09:49:20;;;;;;;34.33;31.65;;;27.20;99.90;;;;;;4980341;28;20046;-77
2023/08/22 09:51:49;;;;;;;33.35;31.30;;;26.60;99.90;;;;;;4980731;28;20263;-78
2023/08/22 09:54:16;;;;;;;36.10;33.55;;;26.60;99.90;;;;;;4967613;28;20043;-78
2023/08/22 09:56:44;;;;;;;35.30;32.90;;;26.70;99.90;;;;;;4979874;28;20049;-78
2023/08/22 09:59:17;;;;;;;35.05;32.85;;;26.80;99.90;;;;;;4975461;28;20042;-78
2023/08/22 10:01:44;;;;;;;36.10;33.58;;;26.40;99.90;;;;;;4975234;28;20046;-78
2023/08/22 10:04:13;;;;;;;34.40;32.10;;;26.60;99.90;;;;;;4977599;28;20105;-77
2023/08/22 10:06:41;;;;;;;30.80;28.50;;;26.80;99.90;;;;;;4976285;28;20050;-77
2023/08/22 10:09:14;;;;;;;35.83;33.53;;;27.20;99.90;;;;;;4978373;28;20256;-77
2023/08/22 10:11:50;;;;;;;34.70;32.22;;;27.20;99.90;;;;;;4970896;28;20046;-78
2023/08/22 10:14:44;;;;;;;33.67;31.60;;;27.20;99.90;;;;;;4976599;28;20552;-77
2023/08/22 10:17:13;;;;;;;32.75;30.52;;;26.90;99.90;;;;;;4976757;28;20042;-77
2023/08/22 10:19:41;;;;;;;32.60;30.33;;;26.80;99.90;;;;;;4975540;28;20084;-77
2023/08/22 10:22:13;;;;;;;34.63;32.22;;;26.40;99.90;;;;;;4979474;28;20132;-77
2023/08/22 10:24:42;;;;;;;33.00;30.63;;;25.90;99.90;;;;;;4981591;28;20073;-78
2023/08/22 10:27:13;;;;;;;34.35;32.17;;;26.10;99.90;;;;;;4981977;28;20042;-78
2023/08/22 10:29:45;;;;;;;34.15;31.92;;;26.20;99.90;;;;;;4975869;28;20042;-77
2023/08/22 10:32:19;;;;;;;34.80;32.60;;;26.00;99.90;;;;;;4975073;28;20513;-78
2023/08/22 10:34:45;;;;;;;33.47;31.23;;;26.20;99.90;;;;;;4976377;28;20050;-78
2023/08/22 10:37:16;;;;;;;34.33;31.83;;;26.60;99.90;;;;;;4978043;28;20057;-77
2023/08/22 10:39:45;;;;;;;33.40;31.15;;;26.50;99.90;;;;;;4976123;28;20062;-78
2023/08/22 10:42:19;;;;;;;36.00;33.55;;;26.10;99.90;;;;;;4975593;28;20058;-77
2023/08/22 10:44:51;;;;;;;36.20;33.65;;;26.00;99.90;;;;;;4978398;28;22259;-77
2023/08/22 10:47:22;;;;;;;34.25;31.95;;;26.00;99.90;;;;;;4975203;28;20084;-77
2023/08/22 10:49:51;;;;;;;34.90;32.50;;;26.10;99.90;;;;;;4977173;28;20050;-77
2023/08/22 10:52:36;;;;;;;35.95;33.50;;;26.40;99.90;;;;;;4974177;28;20073;-77
2023/08/22 10:55:03;;;;;;;38.35;35.72;;;26.70;99.90;;;;;;4980846;28;20053;-78
2023/08/22 10:57:36;;;;;;;34.85;32.58;;;26.90;99.90;;;;;;4977862;28;20037;-77
2023/08/22 11:00:21;;;;;;;33.92;31.40;;;26.80;99.90;;;;;;4975632;28;22096;-78
2023/08/22 11:02:50;;;;;;;;;;;26.80;99.90;;;;;;4982693;28;20050;-78
2023/08/22 11:05:17;;;;;;;37.47;34.78;;;26.60;99.90;;;;;;4981661;28;19969;-78
2023/08/22 11:07:46;;;;;;;36.25;33.55;;;26.60;99.90;;;;;;4973132;28;20077;-78
2023/08/22 11:10:20;;;;;;;34.65;32.35;;;26.90;99.90;;;;;;4977364;28;21359;-76
2023/08/22 11:12:49;;;;;;;35.35;32.92;;;26.80;99.90;;;;;;4980183;28;20444;-77
2023/08/22 11:15:17;;;;;;;36.30;33.60;;;26.70;99.90;;;;;;4981822;28;20302;-78
2023/08/22 11:17:49;;;;;;;33.20;30.73;;;26.60;99.90;;;;;;4975731;28;20042;-76
2023/08/22 11:20:18;;;;;;;32.75;30.52;;;26.40;99.90;;;;;;4974513;28;20061;-78
2023/08/22 11:22:45;;;;;;;35.63;33.33;;;25.80;99.90;;;;;;4976047;28;20043;-78
2023/08/22 11:25:22;;;;;;;34.42;32.03;;;25.90;99.90;;;;;;4976539;28;20050;-77
2023/08/22 11:27:49;;;;;;;;;;;26.10;99.90;;;;;;4979383;28;21372;-78
2023/08/22 11:30:18;;;;;;;36.08;33.65;;;26.40;99.90;;;;;;4977695;28;21713;-78
2023/08/22 11:32:45;;;;;;;32.95;30.60;;;26.70;99.90;;;;;;4982697;28;20050;-78
2023/08/22 11:35:12;;;;;;;35.08;32.58;;;26.90;99.90;;;;;;4978687;28;20129;-77
2023/08/22 11:37:40;;;;;;;34.97;32.67;;;26.80;99.90;;;;;;4981424;28;20051;-78
2023/08/22 11:40:15;;;;;;;34.58;32.13;;;26.70;99.90;;;;;;4978925;28;20050;-77
2023/08/22 11:42:46;;;;;;;34.63;32.10;;;26.80;99.90;;;;;;4979253;28;20101;-78
2023/08/22 11:45:14;;;;;;;35.30;32.75;;;26.80;99.90;;;;;;4982572;28;20046;-76
2023/08/22 11:47:46;;;;;;;33.78;31.58;;;26.80;99.90;;;;;;4981890;28;20069;-77
2023/08/22 11:50:28;;;;;;;35.10;32.65;;;26.80;99.90;;;;;;4980635;28;20042;-77
2023/08/22 11:52:57;;;;;;;30.80;28.13;;;26.90;99.90;;;;;;4980600;28;20039;-77
2023/08/22 11:55:27;;;;;;;34.15;31.95;;;26.90;99.90;;;;;;4975926;28;20044;-78
2023/08/22 11:58:01;;;;;;;35.45;32.72;;;26.90;99.90;;;;;;4978023;28;20169;-76
2023/08/22 12:00:30;;;;;;;35.77;33.10;;;26.50;99.90;;;;;;4977834;28;20050;-77
2023/08/22 12:02:59;;;;;;;36.17;33.13;;;26.30;99.90;;;;;;4981058;28;20298;-77
2023/08/22 12:05:41;;;;;;;34.40;32.10;;;26.10;99.90;;;;;;4980654;28;20047;-78
2023/08/22 12:08:11;;;;;;;34.88;32.10;;;25.90;99.90;;;;;;4976994;28;20768;-76
2023/08/22 12:10:42;;;;;;;35.50;32.97;;;25.90;99.90;;;;;;4979290;28;20047;-78
2023/08/22 12:13:12;;;;;;;35.45;32.65;;;25.80;99.90;;;;;;4979369;28;20674;-78
2023/08/22 12:15:40;;;;;;;35.83;33.15;;;25.80;99.90;;;;;;4973323;28;20069;-77
2023/08/22 12:18:08;;;;;;;37.42;34.72;;;25.80;99.90;;;;;;4975843;28;20692;-78
2023/08/22 12:20:38;;;;;;;35.13;32.60;;;25.70;99.90;;;;;;4978554;28;20077;-78
2023/08/22 12:23:07;;;;;;;35.90;33.67;;;25.70;99.90;;;;;;4979670;28;20046;-78
2023/08/22 12:25:34;;;;;;;36.05;33.45;;;25.80;99.90;;;;;;4978718;28;20716;-78
2023/08/22 12:28:05;;;;;;;35.70;33.35;;;26.10;99.90;;;;;;4981856;28;20049;-77
2023/08/22 12:30:33;;;;;;;36.58;33.95;;;26.30;99.90;;;;;;4975062;28;20210;-78
2023/08/22 12:33:03;;;;;;;34.90;32.38;;;26.60;99.90;;;;;;4993897;28;20253;-77
2023/08/22 12:35:32;;;;;;;37.08;34.38;;;26.60;99.90;;;;;;4982252;28;20404;-78